Time;durP1;ratioP1;P1;durP2;ratioP2;P2;SDS_P1;SDS_P2;PMS_P1;PMS_P2;Temp;Humidity;BMP_temperature;BMP_pressure;BME280_temperature;BME280_humidity;BME280_pressure;Samples;Min_cycle;Max_cycle;Signal;HPM_P1;HPM_P2
2021/10/10 00:01:28;;;;;;;10.43;5.50;;;;;;;;;;5015515;28;20263;-60
2021/10/10 00:03:54;;;;;;;8.25;4.82;;;;;;;;;;5019163;28;20036;-61
2021/10/10 00:06:19;;;;;;;7.45;4.70;;;;;;;;;;5019833;28;20037;-60
2021/10/10 00:08:45;;;;;;;10.93;5.15;;;;;;;;;;5019754;28;20508;-60
2021/10/10 00:11:10;;;;;;;11.23;4.63;;;;;;;;;;5024031;28;20044;-61
2021/10/10 00:13:36;;;;;;;10.23;4.85;;;;;;;;;;5018672;28;20033;-60
2021/10/10 00:16:01;;;;;;;11.68;4.65;;;;;;;;;;5018517;28;20037;-60
2021/10/10 00:18:27;;;;;;;11.20;4.45;;;;;;;;;;5020126;28;20033;-60
2021/10/10 00:20:53;;;;;;;9.75;4.70;;;;;;;;;;5019726;28;20684;-60
2021/10/10 00:23:18;;;;;;;6.60;4.30;;;;;;;;;;5021308;28;20099;-60
2021/10/10 00:25:44;;;;;;;9.07;4.88;;;;;;;;;;5021730;28;20121;-60
2021/10/10 00:28:09;;;;;;;11.77;4.88;;;;;;;;;;5018418;28;20033;-60
2021/10/10 00:30:35;;;;;;;9.65;4.60;;;;;;;;;;5017002;28;20472;-60
2021/10/10 00:33:00;;;;;;;9.65;4.88;;;;;;;;;;5014738;28;20038;-60
2021/10/10 00:35:26;;;;;;;9.75;4.93;;;;;;;;;;5020192;28;20598;-60
2021/10/10 00:37:51;;;;;;;17.67;5.22;;;;;;;;;;5020289;28;20029;-60
2021/10/10 00:40:17;;;;;;;8.60;4.05;;;;;;;;;;5014897;28;20032;-60
2021/10/10 00:42:43;;;;;;;8.10;4.50;;;;;;;;;;5023500;28;20579;-60
2021/10/10 00:45:09;;;;;;;13.35;3.83;;;;;;;;;;5019509;28;20107;-60
2021/10/10 00:47:36;;;;;;;10.90;4.40;;;;;;;;;;5015008;28;20026;-60
2021/10/10 00:50:01;;;;;;;8.95;3.65;;;;;;;;;;5018083;28;20075;-60
2021/10/10 00:52:29;;;;;;;8.45;3.90;;;;;;;;;;5012602;28;20045;-60
2021/10/10 00:54:56;;;;;;;9.25;3.88;;;;;;;;;;5022910;28;20037;-60
2021/10/10 00:57:23;;;;;;;10.75;3.40;;;;;;;;;;5015498;28;20033;-60
2021/10/10 00:59:51;;;;;;;10.77;3.55;;;;;;;;;;5020906;28;20049;-60
2021/10/10 01:02:17;;;;;;;5.20;2.97;;;;;;;;;;5021057;28;20117;-60
2021/10/10 01:04:42;;;;;;;8.40;3.47;;;;;;;;;;5013910;28;20117;-60
2021/10/10 01:07:08;;;;;;;8.55;3.17;;;;;;;;;;5017836;28;20038;-60
2021/10/10 01:09:35;;;;;;;11.02;3.38;;;;;;;;;;5019830;28;20030;-60
2021/10/10 01:12:02;;;;;;;14.80;3.50;;;;;;;;;;5017180;28;20026;-60
2021/10/10 01:14:28;;;;;;;7.28;3.70;;;;;;;;;;5018864;28;20111;-60
2021/10/10 01:16:53;;;;;;;7.97;3.15;;;;;;;;;;5014327;28;20030;-60
2021/10/10 01:19:19;;;;;;;8.65;3.75;;;;;;;;;;5016463;28;20256;-60
2021/10/10 01:21:45;;;;;;;9.60;3.33;;;;;;;;;;5014737;28;20037;-60
2021/10/10 01:24:11;;;;;;;4.70;3.22;;;;;;;;;;5018223;28;20496;-60
2021/10/10 01:26:36;;;;;;;17.20;3.67;;;;;;;;;;5018787;28;20053;-60
2021/10/10 01:29:02;;;;;;;9.27;3.25;;;;;;;;;;5020419;28;20026;-61
2021/10/10 01:31:27;;;;;;;11.48;3.40;;;;;;;;;;5024444;28;20116;-60
2021/10/10 01:33:53;;;;;;;8.98;3.33;;;;;;;;;;5017335;28;20033;-60
2021/10/10 01:36:20;;;;;;;9.30;4.03;;;;;;;;;;5021210;28;20432;-60
2021/10/10 01:38:45;;;;;;;10.15;3.13;;;;;;;;;;5021129;28;20018;-60
2021/10/10 01:41:11;;;;;;;9.52;2.83;;;;;;;;;;5016292;28;20080;-60
2021/10/10 01:43:38;;;;;;;11.80;3.30;;;;;;;;;;5014600;28;20022;-60
2021/10/10 01:46:03;;;;;;;13.70;2.95;;;;;;;;;;5020537;28;20048;-60
2021/10/10 01:48:29;;;;;;;7.65;3.08;;;;;;;;;;5017458;28;20026;-60
2021/10/10 01:50:55;;;;;;;9.48;3.25;;;;;;;;;;5019088;28;20034;-60
2021/10/10 01:53:20;;;;;;;9.35;2.75;;;;;;;;;;5017775;28;20021;-60
2021/10/10 01:55:46;;;;;;;7.63;3.20;;;;;;;;;;5017072;28;20036;-60
2021/10/10 01:58:12;;;;;;;9.73;3.33;;;;;;;;;;5016433;28;20059;-60
2021/10/10 02:00:38;;;;;;;6.20;2.60;;;;;;;;;;5013023;28;20552;-60
2021/10/10 02:03:03;;;;;;;10.27;2.92;;;;;;;;;;5021048;28;20030;-60
2021/10/10 02:05:29;;;;;;;8.23;3.03;;;;;;;;;;5013577;28;20120;-60
2021/10/10 02:07:55;;;;;;;10.93;3.80;;;;;;;;;;5016937;28;20060;-60
2021/10/10 02:10:21;;;;;;;14.65;5.72;;;;;;;;;;5023552;28;20037;-59
2021/10/10 02:12:46;;;;;;;22.88;6.47;;;;;;;;;;5019716;28;20560;-60
2021/10/10 02:15:12;;;;;;;19.00;9.02;;;;;;;;;;5013610;28;20056;-59
2021/10/10 02:17:38;;;;;;;15.25;9.13;;;;;;;;;;5012849;28;20328;-60
2021/10/10 02:20:05;;;;;;;12.35;6.28;;;;;;;;;;5014889;28;20030;-60
2021/10/10 02:22:30;;;;;;;8.55;5.25;;;;;;;;;;5017463;28;20522;-60
2021/10/10 02:24:56;;;;;;;11.77;4.40;;;;;;;;;;5018375;28;20037;-61
2021/10/10 02:27:21;;;;;;;15.10;5.32;;;;;;;;;;5017152;28;20051;-60
2021/10/10 02:29:47;;;;;;;8.73;3.58;;;;;;;;;;5021730;28;20029;-59
2021/10/10 02:32:12;;;;;;;13.48;3.88;;;;;;;;;;5023977;28;20034;-60
2021/10/10 02:34:38;;;;;;;10.18;2.97;;;;;;;;;;5018660;28;20353;-60
2021/10/10 02:37:03;;;;;;;5.78;2.75;;;;;;;;;;5017303;28;20418;-60
2021/10/10 02:39:29;;;;;;;10.60;3.20;;;;;;;;;;5017470;28;20226;-60
2021/10/10 02:41:54;;;;;;;7.53;2.90;;;;;;;;;;5011061;28;20034;-60
2021/10/10 02:44:20;;;;;;;10.30;3.25;;;;;;;;;;5018580;28;20026;-60
2021/10/10 02:46:45;;;;;;;7.70;3.10;;;;;;;;;;5021128;28;20034;-60
2021/10/10 02:49:11;;;;;;;5.57;3.17;;;;;;;;;;5016158;28;20041;-59
2021/10/10 02:51:36;;;;;;;8.18;2.92;;;;;;;;;;5018269;28;20038;-60
2021/10/10 02:54:02;;;;;;;9.52;3.28;;;;;;;;;;5018109;28;20041;-60
2021/10/10 02:56:27;;;;;;;7.93;3.10;;;;;;;;;;5017992;28;20046;-59
2021/10/10 02:58:53;;;;;;;8.48;2.95;;;;;;;;;;5017655;28;20525;-60
2021/10/10 03:01:18;;;;;;;11.05;3.22;;;;;;;;;;5012606;28;20088;-60
2021/10/10 03:03:44;;;;;;;6.40;3.00;;;;;;;;;;5019644;28;20041;-60
2021/10/10 03:06:10;;;;;;;9.30;3.38;;;;;;;;;;5021729;28;20041;-60
2021/10/10 03:08:38;;;;;;;5.90;3.03;;;;;;;;;;5021546;28;20107;-59
2021/10/10 03:11:04;;;;;;;8.32;3.63;;;;;;;;;;5018124;28;20034;-60
2021/10/10 03:13:29;;;;;;;9.98;4.47;;;;;;;;;;5015365;28;20042;-59
2021/10/10 03:15:56;;;;;;;15.77;7.35;;;;;;;;;;5021333;28;20041;-60
2021/10/10 03:18:21;;;;;;;23.08;8.85;;;;;;;;;;5014230;28;20295;-60
2021/10/10 03:20:47;;;;;;;15.98;10.07;;;;;;;;;;5013842;28;20148;-60
2021/10/10 03:23:12;;;;;;;17.75;9.70;;;;;;;;;;5021547;28;20087;-60
2021/10/10 03:25:38;;;;;;;15.95;8.73;;;;;;;;;;5022175;28;20084;-60
2021/10/10 03:28:04;;;;;;;17.70;8.38;;;;;;;;;;5020725;28;20044;-60
2021/10/10 03:30:29;;;;;;;19.92;8.77;;;;;;;;;;5019411;28;20121;-60
2021/10/10 03:32:55;;;;;;;22.92;10.02;;;;;;;;;;5014242;28;20114;-61
2021/10/10 03:35:20;;;;;;;20.08;9.00;;;;;;;;;;5011944;28;20117;-60
2021/10/10 03:37:46;;;;;;;20.77;10.07;;;;;;;;;;5016712;28;20060;-60
2021/10/10 03:40:12;;;;;;;17.83;8.52;;;;;;;;;;5021690;28;20087;-60
2021/10/10 03:42:38;;;;;;;18.52;8.10;;;;;;;;;;5021785;28;20180;-60
2021/10/10 03:45:06;;;;;;;21.73;8.63;;;;;;;;;;5023036;28;20552;-60
2021/10/10 03:47:31;;;;;;;19.70;8.57;;;;;;;;;;5019718;28;20029;-60
2021/10/10 03:49:57;;;;;;;18.85;9.13;;;;;;;;;;5017436;28;20429;-60
2021/10/10 03:52:22;;;;;;;21.75;8.55;;;;;;;;;;5021421;28;20037;-60
2021/10/10 03:57:32;;;;;;;16.58;8.60;;;;;;;;;;5016069;28;20510;-60
2021/10/10 04:00:01;;;;;;;18.77;9.43;;;;;;;;;;5012038;28;20057;-60
2021/10/10 04:02:26;;;;;;;16.90;8.88;;;;;;;;;;5021259;28;20034;-59
2021/10/10 04:04:53;;;;;;;21.85;8.40;;;;;;;;;;5023400;28;20070;-60
2021/10/10 04:07:22;;;;;;;18.70;8.38;;;;;;;;;;5019305;28;20146;-60
2021/10/10 04:09:48;;;;;;;21.48;8.63;;;;;;;;;;5020813;28;20030;-60
2021/10/10 04:12:13;;;;;;;19.70;8.40;;;;;;;;;;5016326;28;20041;-60
2021/10/10 04:14:39;;;;;;;21.35;8.73;;;;;;;;;;5019277;28;20129;-60
2021/10/10 04:17:04;;;;;;;21.80;8.80;;;;;;;;;;5011510;28;20523;-60
2021/10/10 04:19:31;;;;;;;22.90;8.05;;;;;;;;;;5009204;28;20025;-60
2021/10/10 04:21:57;;;;;;;30.88;8.98;;;;;;;;;;5016208;28;20120;-60
2021/10/10 04:24:23;;;;;;;21.45;8.48;;;;;;;;;;5013083;28;20036;-60
2021/10/10 04:26:49;;;;;;;23.42;8.75;;;;;;;;;;5013844;28;20038;-60
2021/10/10 04:29:14;;;;;;;33.15;9.80;;;;;;;;;;5016992;28;20038;-60
2021/10/10 04:31:40;;;;;;;26.77;10.07;;;;;;;;;;5023456;28;20501;-60
2021/10/10 04:34:05;;;;;;;21.48;9.27;;;;;;;;;;5013127;28;20040;-60
2021/10/10 04:36:30;;;;;;;20.90;9.20;;;;;;;;;;5023391;28;20037;-60
2021/10/10 04:38:56;;;;;;;29.25;10.40;;;;;;;;;;5016123;28;20084;-60
2021/10/10 04:41:21;;;;;;;41.15;12.20;;;;;;;;;;5020073;28;20080;-61
2021/10/10 04:43:47;;;;;;;31.02;10.52;;;;;;;;;;5017646;28;20049;-60
2021/10/10 04:46:12;;;;;;;38.97;13.30;;;;;;;;;;5019147;28;20515;-60
2021/10/10 04:48:38;;;;;;;32.47;11.70;;;;;;;;;;5020375;28;20037;-59
2021/10/10 04:51:03;;;;;;;29.70;11.55;;;;;;;;;;5019362;28;20037;-60
2021/10/10 04:53:29;;;;;;;42.83;12.85;;;;;;;;;;5018331;28;20069;-60
2021/10/10 04:55:55;;;;;;;36.95;13.15;;;;;;;;;;5022361;28;20041;-60
2021/10/10 04:58:20;;;;;;;33.75;11.73;;;;;;;;;;5026560;28;20045;-61
2021/10/10 05:00:46;;;;;;;34.15;13.23;;;;;;;;;;5019965;28;20492;-60
2021/10/10 05:03:11;;;;;;;48.20;12.45;;;;;;;;;;5019172;28;20044;-61
2021/10/10 05:05:41;;;;;;;36.53;11.57;;;;;;;;;;5042191;28;20091;-60
2021/10/10 05:08:07;;;;;;;41.22;11.32;;;;;;;;;;5021511;28;20260;-60
2021/10/10 05:10:32;;;;;;;36.42;11.77;;;;;;;;;;5023657;28;20214;-60
2021/10/10 05:12:58;;;;;;;46.83;11.73;;;;;;;;;;5026615;28;20033;-61
2021/10/10 05:15:23;;;;;;;39.00;10.55;;;;;;;;;;5022558;28;20530;-61
2021/10/10 05:17:49;;;;;;;29.77;9.93;;;;;;;;;;5019301;28;20053;-61
2021/10/10 05:20:14;;;;;;;37.95;10.40;;;;;;;;;;5016869;28;20033;-60
2021/10/10 05:22:41;;;;;;;42.88;11.20;;;;;;;;;;5016936;28;20469;-60
2021/10/10 05:25:07;;;;;;;29.92;9.75;;;;;;;;;;5019887;28;20030;-60
2021/10/10 05:27:32;;;;;;;27.00;9.52;;;;;;;;;;5020784;28;20842;-60
2021/10/10 05:29:58;;;;;;;25.05;10.68;;;;;;;;;;5022989;28;20064;-60
2021/10/10 05:32:23;;;;;;;25.83;8.55;;;;;;;;;;5016901;28;20105;-60
2021/10/10 05:34:49;;;;;;;32.65;8.55;;;;;;;;;;5017624;28;20496;-61
2021/10/10 05:37:14;;;;;;;25.08;8.45;;;;;;;;;;5016940;28;20112;-60
2021/10/10 05:39:40;;;;;;;24.33;8.48;;;;;;;;;;5010413;28;20040;-60
2021/10/10 05:42:06;;;;;;;27.20;7.18;;;;;;;;;;5016450;28;20032;-60
2021/10/10 05:44:31;;;;;;;31.25;7.57;;;;;;;;;;5018266;28;20401;-60
2021/10/10 05:46:57;;;;;;;31.67;6.75;;;;;;;;;;5022142;28;20118;-60
2021/10/10 05:49:22;;;;;;;34.35;7.40;;;;;;;;;;5024053;28;20044;-60
2021/10/10 05:51:49;;;;;;;20.05;6.95;;;;;;;;;;5017800;28;20101;-60
2021/10/10 05:54:16;;;;;;;13.35;6.13;;;;;;;;;;5016031;28;20075;-60
2021/10/10 05:56:42;;;;;;;24.33;7.30;;;;;;;;;;5015029;28;20108;-60
2021/10/10 05:59:09;;;;;;;21.55;7.20;;;;;;;;;;5020213;28;20524;-61
2021/10/10 06:01:35;;;;;;;23.80;7.65;;;;;;;;;;5018327;28;20033;-61
2021/10/10 06:04:03;;;;;;;22.95;7.65;;;;;;;;;;5021963;28;20091;-60
2021/10/10 06:06:28;;;;;;;17.17;6.05;;;;;;;;;;5018507;28;20063;-60
2021/10/10 06:08:54;;;;;;;20.02;6.18;;;;;;;;;;5018462;28;20412;-61
2021/10/10 06:11:20;;;;;;;13.07;6.13;;;;;;;;;;5017707;28;20028;-61
2021/10/10 06:13:46;;;;;;;16.60;6.15;;;;;;;;;;5023126;28;20455;-60
2021/10/10 06:16:11;;;;;;;16.48;5.65;;;;;;;;;;5024395;28;20044;-60
2021/10/10 06:18:37;;;;;;;20.83;5.97;;;;;;;;;;5013175;28;20661;-60
2021/10/10 06:21:02;;;;;;;15.90;5.07;;;;;;;;;;5023060;28;20033;-60
2021/10/10 06:23:28;;;;;;;16.45;5.93;;;;;;;;;;5020041;28;20030;-60
2021/10/10 06:25:53;;;;;;;17.30;5.88;;;;;;;;;;5020093;28;20037;-61
2021/10/10 06:28:19;;;;;;;30.35;7.65;;;;;;;;;;5016518;28;20033;-60
2021/10/10 06:30:44;;;;;;;14.13;5.50;;;;;;;;;;5015628;28;20420;-60
2021/10/10 06:33:10;;;;;;;24.77;5.07;;;;;;;;;;5016184;28;20030;-61
2021/10/10 06:35:35;;;;;;;20.45;5.40;;;;;;;;;;5021594;28;20057;-60
2021/10/10 06:38:01;;;;;;;16.63;6.30;;;;;;;;;;5017300;28;20547;-60
2021/10/10 06:40:27;;;;;;;23.45;5.32;;;;;;;;;;5019216;28;20477;-60
2021/10/10 06:42:52;;;;;;;25.55;5.50;;;;;;;;;;5025750;28;20381;-60
2021/10/10 06:45:18;;;;;;;19.90;5.63;;;;;;;;;;5021498;28;20041;-60
2021/10/10 06:47:43;;;;;;;15.32;5.32;;;;;;;;;;5021797;28;20037;-60
2021/10/10 06:50:09;;;;;;;19.45;5.53;;;;;;;;;;5018675;28;20156;-60
2021/10/10 06:52:35;;;;;;;17.58;5.68;;;;;;;;;;5022429;28;20446;-60
2021/10/10 06:55:00;;;;;;;17.67;6.03;;;;;;;;;;5023083;28;20025;-59
2021/10/10 06:57:29;;;;;;;20.25;6.30;;;;;;;;;;5025527;28;20555;-60
2021/10/10 06:59:58;;;;;;;16.90;6.10;;;;;;;;;;5019218;28;20046;-60
2021/10/10 07:02:24;;;;;;;14.52;6.65;;;;;;;;;;5015843;28;20536;-60
2021/10/10 07:04:50;;;;;;;27.33;7.50;;;;;;;;;;5017177;28;20025;-60
2021/10/10 07:07:15;;;;;;;25.67;6.82;;;;;;;;;;5018535;28;20037;-60
2021/10/10 07:09:41;;;;;;;19.55;6.80;;;;;;;;;;5017548;28;20060;-60
2021/10/10 07:12:06;;;;;;;19.42;6.43;;;;;;;;;;5022774;28;20025;-60
2021/10/10 07:14:32;;;;;;;27.92;6.80;;;;;;;;;;5013289;28;20038;-60
2021/10/10 07:16:58;;;;;;;25.13;7.78;;;;;;;;;;5020831;28;20500;-61
2021/10/10 07:19:26;;;;;;;21.08;7.57;;;;;;;;;;5015186;28;20138;-60
2021/10/10 07:22:00;;;;;;;21.17;6.22;;;;;;;;;;5017950;28;20377;-61
2021/10/10 07:27:10;;;;;;;20.23;6.38;;;;;;;;;;5015803;28;20092;-60
2021/10/10 07:29:35;;;;;;;23.70;5.95;;;;;;;;;;5015746;28;20030;-60
2021/10/10 07:32:02;;;;;;;22.10;7.38;;;;;;;;;;5016773;28;20037;-60
2021/10/10 07:34:27;;;;;;;28.70;6.85;;;;;;;;;;5016480;28;20029;-60
2021/10/10 07:36:53;;;;;;;26.48;7.20;;;;;;;;;;5018733;28;20040;-60
2021/10/10 07:39:19;;;;;;;30.85;7.13;;;;;;;;;;5014933;28;20079;-61
2021/10/10 07:41:45;;;;;;;22.45;6.68;;;;;;;;;;5019629;28;20049;-60
2021/10/10 07:44:13;;;;;;;25.95;7.10;;;;;;;;;;5019427;28;20029;-60
2021/10/10 07:46:41;;;;;;;17.38;6.85;;;;;;;;;;5018842;28;20085;-60
2021/10/10 07:49:08;;;;;;;22.52;7.22;;;;;;;;;;5014076;28;20048;-60
2021/10/10 07:51:35;;;;;;;24.75;7.30;;;;;;;;;;5017144;28;20120;-60
2021/10/10 07:54:00;;;;;;;24.15;7.00;;;;;;;;;;5016018;28;20029;-60
2021/10/10 07:56:26;;;;;;;20.33;5.72;;;;;;;;;;5019155;28;20554;-60
2021/10/10 07:58:51;;;;;;;21.27;6.65;;;;;;;;;;5016153;28;20101;-60
2021/10/10 08:01:17;;;;;;;16.42;6.00;;;;;;;;;;5019364;28;20030;-60
2021/10/10 08:03:43;;;;;;;22.30;5.30;;;;;;;;;;5019625;28;20033;-60
2021/10/10 08:06:09;;;;;;;24.60;6.07;;;;;;;;;;5021114;28;20033;-60
2021/10/10 08:08:35;;;;;;;25.85;6.05;;;;;;;;;;5029366;28;20444;-60
2021/10/10 08:11:01;;;;;;;23.15;5.90;;;;;;;;;;5024829;28;20033;-60
2021/10/10 08:13:26;;;;;;;26.15;6.32;;;;;;;;;;5014599;28;20021;-60
2021/10/10 08:15:52;;;;;;;15.45;5.32;;;;;;;;;;5018254;28;20526;-60
2021/10/10 08:18:17;;;;;;;20.15;5.70;;;;;;;;;;5015750;28;20040;-58
2021/10/10 08:20:43;;;;;;;18.13;6.45;;;;;;;;;;5017985;28;20038;-60
2021/10/10 08:23:10;;;;;;;22.45;6.40;;;;;;;;;;5027253;28;20511;-60
2021/10/10 08:25:35;;;;;;;24.98;7.28;;;;;;;;;;5017890;28;20034;-60
2021/10/10 08:28:01;;;;;;;18.98;5.72;;;;;;;;;;5021226;28;20036;-60
2021/10/10 08:30:26;;;;;;;21.67;5.50;;;;;;;;;;5021096;28;20022;-60
2021/10/10 08:32:52;;;;;;;28.65;5.57;;;;;;;;;;5023438;28;20034;-59
2021/10/10 08:35:19;;;;;;;24.80;5.47;;;;;;;;;;5024096;28;20416;-60
2021/10/10 08:37:45;;;;;;;16.35;5.47;;;;;;;;;;5019261;28;20029;-60
2021/10/10 08:40:12;;;;;;;17.15;7.00;;;;;;;;;;5021230;28;20026;-60
2021/10/10 08:42:41;;;;;;;18.52;5.22;;;;;;;;;;5020142;28;20068;-60
2021/10/10 08:45:10;;;;;;;18.48;5.47;;;;;;;;;;5019875;28;20072;-60
2021/10/10 08:47:43;;;;;;;26.20;5.57;;;;;;;;;;5017089;28;20036;-60
2021/10/10 08:50:19;;;;;;;27.58;6.30;;;;;;;;;;5019425;28;20055;-60
2021/10/10 08:52:45;;;;;;;21.83;5.80;;;;;;;;;;5016649;28;20034;-60
2021/10/10 08:55:12;;;;;;;14.05;5.32;;;;;;;;;;5018826;28;20029;-60
2021/10/10 08:57:38;;;;;;;17.92;5.60;;;;;;;;;;5017446;28;20067;-60
2021/10/10 09:00:10;;;;;;;21.17;5.88;;;;;;;;;;5021297;28;20505;-60
2021/10/10 09:02:38;;;;;;;21.25;4.45;;;;;;;;;;5020513;28;20040;-61
2021/10/10 09:05:10;;;;;;;17.92;4.05;;;;;;;;;;5022473;28;20034;-60
2021/10/10 09:07:36;;;;;;;18.85;5.10;;;;;;;;;;5024314;28;20026;-60
2021/10/10 09:10:27;;;;;;;16.95;4.45;;;;;;;;;;5021196;28;20176;-60
2021/10/10 09:13:03;;;;;;;14.60;5.40;;;;;;;;;;5021558;28;20029;-60
2021/10/10 09:15:29;;;;;;;24.85;5.15;;;;;;;;;;5015219;28;20074;-60
2021/10/10 09:17:56;;;;;;;10.70;4.10;;;;;;;;;;5017278;28;20488;-60
2021/10/10 09:20:34;;;;;;;12.73;4.47;;;;;;;;;;5019276;28;20021;-60
2021/10/10 09:23:02;;;;;;;21.08;4.63;;;;;;;;;;5016614;28;20029;-60
2021/10/10 09:25:28;;;;;;;25.85;6.20;;;;;;;;;;5018458;28;20129;-60
2021/10/10 09:27:53;;;;;;;14.45;4.32;;;;;;;;;;5017885;28;20337;-60
2021/10/10 09:30:22;;;;;;;12.82;5.10;;;;;;;;;;5016130;28;20088;-60
2021/10/10 09:32:55;;;;;;;22.00;5.63;;;;;;;;;;5015237;28;20033;-60
2021/10/10 09:35:31;;;;;;;18.55;5.68;;;;;;;;;;5011963;28;20037;-60
2021/10/10 09:38:07;;;;;;;16.30;3.90;;;;;;;;;;5019495;28;20127;-60
2021/10/10 09:40:36;;;;;;;16.27;4.47;;;;;;;;;;5021890;28;20053;-60
2021/10/10 09:43:03;;;;;;;11.95;3.30;;;;;;;;;;5018649;28;20033;-60
2021/10/10 09:45:52;;;;;;;16.98;4.18;;;;;;;;;;5023909;28;20049;-60
2021/10/10 09:48:35;;;;;;;20.25;3.45;;;;;;;;;;5019515;28;20030;-60
2021/10/10 09:51:01;;;;;;;15.60;3.67;;;;;;;;;;5017915;28;20400;-60
2021/10/10 09:53:34;;;;;;;16.00;4.07;;;;;;;;;;5017949;28;20029;-60
2021/10/10 09:56:17;;;;;;;17.05;4.00;;;;;;;;;;5016248;28;20029;-60
2021/10/10 09:58:43;;;;;;;12.98;3.35;;;;;;;;;;5012405;28;20076;-60
2021/10/10 10:01:13;;;;;;;9.43;2.60;;;;;;;;;;5014492;28;20030;-60
2021/10/10 10:04:00;;;;;;;18.92;3.28;;;;;;;;;;5015878;28;20088;-60
2021/10/10 10:06:27;;;;;;;13.88;2.10;;;;;;;;;;5013751;28;20033;-60
2021/10/10 10:09:01;;;;;;;10.68;2.20;;;;;;;;;;5017363;28;20037;-59
2021/10/10 10:11:29;;;;;;;13.40;2.95;;;;;;;;;;5012817;28;20424;-60
2021/10/10 10:13:55;;;;;;;15.43;2.85;;;;;;;;;;5014764;28;20034;-61
2021/10/10 10:16:21;;;;;;;13.88;3.05;;;;;;;;;;5029377;28;20029;-60
2021/10/10 10:18:47;;;;;;;17.88;3.30;;;;;;;;;;5013879;28;20477;-61
2021/10/10 10:21:13;;;;;;;13.88;3.08;;;;;;;;;;5023943;28;20037;-60
2021/10/10 10:23:40;;;;;;;17.23;3.30;;;;;;;;;;5019760;28;20377;-60
2021/10/10 10:26:05;;;;;;;20.00;2.78;;;;;;;;;;5019233;28;20109;-60
2021/10/10 10:28:31;;;;;;;17.33;4.63;;;;;;;;;;5021919;28;20041;-60
2021/10/10 10:30:59;;;;;;;34.72;6.30;;;;;;;;;;5020148;28;20380;-60
2021/10/10 10:33:31;;;;;;;14.10;3.55;;;;;;;;;;5015135;28;20208;-60
2021/10/10 10:35:57;;;;;;;10.75;3.38;;;;;;;;;;5014009;28;20120;-60
2021/10/10 10:38:49;;;;;;;23.27;4.35;;;;;;;;;;5022782;28;20105;-60
2021/10/10 10:41:49;;;;;;;15.40;3.70;;;;;;;;;;5018904;28;20037;-60
2021/10/10 10:44:44;;;;;;;12.55;3.40;;;;;;;;;;5015163;28;20036;-60
2021/10/10 10:47:21;;;;;;;16.23;3.10;;;;;;;;;;5016458;28;20041;-60
2021/10/10 10:49:56;;;;;;;11.35;2.88;;;;;;;;;;5019855;28;20431;-60
2021/10/10 10:52:24;;;;;;;12.75;2.53;;;;;;;;;;5021974;28;20033;-60
2021/10/10 10:54:55;;;;;;;19.00;4.05;;;;;;;;;;5020932;28;20028;-60
2021/10/10 10:57:39;;;;;;;18.48;2.85;;;;;;;;;;5019993;28;20014;-59
2021/10/10 11:00:19;;;;;;;13.65;2.80;;;;;;;;;;5019325;28;20045;-60
2021/10/10 11:02:51;;;;;;;7.95;2.70;;;;;;;;;;5022633;28;20032;-61
2021/10/10 11:05:46;;;;;;;17.30;3.55;;;;;;;;;;5019417;28;20396;-60
2021/10/10 11:08:17;;;;;;;15.23;3.33;;;;;;;;;;5019287;28;20037;-60
2021/10/10 11:11:18;;;;;;;18.38;2.97;;;;;;;;;;5022128;28;20472;-60
2021/10/10 11:14:05;;;;;;;13.50;3.13;;;;;;;;;;5015787;28;20053;-60
2021/10/10 11:16:32;;;;;;;11.07;3.35;;;;;;;;;;5021271;28;20018;-60
2021/10/10 11:19:03;;;;;;;14.57;3.08;;;;;;;;;;5021479;28;20150;-60
2021/10/10 11:21:36;;;;;;;19.33;3.20;;;;;;;;;;5025321;28;20491;-60
2021/10/10 11:24:03;;;;;;;10.38;2.85;;;;;;;;;;5020272;28;20018;-60
2021/10/10 11:26:33;;;;;;;8.18;2.22;;;;;;;;;;5023603;28;20036;-60
2021/10/10 11:29:02;;;;;;;16.60;2.80;;;;;;;;;;5021301;28;20040;-60
2021/10/10 11:31:30;;;;;;;12.38;2.50;;;;;;;;;;5018607;28;20025;-60
2021/10/10 11:34:01;;;;;;;9.70;2.70;;;;;;;;;;5017955;28;20469;-60
2021/10/10 11:36:47;;;;;;;11.23;2.20;;;;;;;;;;5024392;28;20440;-60
2021/10/10 11:39:22;;;;;;;13.30;2.80;;;;;;;;;;5023592;28;20148;-60
2021/10/10 11:41:55;;;;;;;10.43;2.40;;;;;;;;;;5020090;28;20033;-60
2021/10/10 11:44:23;;;;;;;12.50;2.20;;;;;;;;;;5021424;28;20033;-60
2021/10/10 11:46:59;;;;;;;18.20;2.70;;;;;;;;;;5025923;28;20102;-59
2021/10/10 11:49:43;;;;;;;5.50;2.10;;;;;;;;;;5023816;28;20488;-60
2021/10/10 11:52:26;;;;;;;9.52;2.05;;;;;;;;;;5022916;28;20560;-60
2021/10/10 11:57:49;;;;;;;;;;;;;;;;;;5020708;28;20180;-59
2021/10/10 12:00:19;;;;;;;7.68;1.67;;;;;;;;;;5020836;28;20012;-60
2021/10/10 12:02:46;;;;;;;11.98;2.67;;;;;;;;;;5017115;28;20045;-61
2021/10/10 12:05:17;;;;;;;8.18;2.00;;;;;;;;;;5019251;28;20038;-60
2021/10/10 12:07:44;;;;;;;9.43;2.35;;;;;;;;;;5025278;28;20932;-61
2021/10/10 12:10:17;;;;;;;10.98;2.08;;;;;;;;;;5016516;28;20037;-60
2021/10/10 12:12:43;;;;;;;10.10;2.00;;;;;;;;;;5018282;28;20026;-60
2021/10/10 12:15:09;;;;;;;8.27;1.80;;;;;;;;;;5022226;28;20568;-60
2021/10/10 12:17:37;;;;;;;9.10;1.98;;;;;;;;;;5014615;28;20030;-60
2021/10/10 12:20:18;;;;;;;8.07;2.05;;;;;;;;;;5026185;28;20029;-61
2021/10/10 12:23:01;;;;;;;9.52;2.08;;;;;;;;;;5023583;28;20037;-61
2021/10/10 12:25:30;;;;;;;11.55;1.92;;;;;;;;;;5021253;28;20712;-60
2021/10/10 12:27:58;;;;;;;7.72;1.88;;;;;;;;;;5021776;28;20022;-61
2021/10/10 12:30:29;;;;;;;10.95;2.05;;;;;;;;;;5015762;28;20096;-61
2021/10/10 12:32:56;;;;;;;12.75;1.83;;;;;;;;;;5019498;28;20026;-61
2021/10/10 12:35:22;;;;;;;10.18;1.58;;;;;;;;;;5016467;28;20041;-61
2021/10/10 12:37:52;;;;;;;10.63;1.90;;;;;;;;;;5020241;28;20021;-61
2021/10/10 12:40:35;;;;;;;12.05;1.90;;;;;;;;;;5014218;28;20026;-60
2021/10/10 12:43:02;;;;;;;13.10;2.00;;;;;;;;;;5014280;28;20041;-61
2021/10/10 12:45:31;;;;;;;6.57;1.55;;;;;;;;;;5019280;28;20029;-61
2021/10/10 12:48:06;;;;;;;7.32;1.80;;;;;;;;;;5013179;28;20041;-61
2021/10/10 12:50:34;;;;;;;9.80;1.58;;;;;;;;;;5017833;28;20671;-61
2021/10/10 12:53:00;;;;;;;8.95;1.90;;;;;;;;;;5012250;28;20077;-61
2021/10/10 12:55:27;;;;;;;10.80;1.80;;;;;;;;;;5013925;28;20025;-61
2021/10/10 12:57:54;;;;;;;11.18;1.65;;;;;;;;;;5022734;28;20195;-61
2021/10/10 13:00:21;;;;;;;13.27;1.60;;;;;;;;;;5016652;28;20119;-61
2021/10/10 13:02:50;;;;;;;7.18;1.42;;;;;;;;;;5014830;28;20431;-61
2021/10/10 13:05:19;;;;;;;11.00;1.92;;;;;;;;;;5018719;28;20038;-61
2021/10/10 13:07:46;;;;;;;10.65;1.67;;;;;;;;;;5021329;28;20079;-61
2021/10/10 13:10:13;;;;;;;8.50;1.60;;;;;;;;;;5022343;28;20503;-61
2021/10/10 13:12:38;;;;;;;12.93;1.58;;;;;;;;;;5019768;28;20035;-61
2021/10/10 13:15:06;;;;;;;8.35;1.83;;;;;;;;;;5023750;28;20025;-60
2021/10/10 13:17:33;;;;;;;7.13;2.03;;;;;;;;;;5028234;28;20040;-61
2021/10/10 13:19:59;;;;;;;10.40;2.30;;;;;;;;;;5025654;28;20037;-61
2021/10/10 13:22:24;;;;;;;12.60;1.60;;;;;;;;;;5020421;28;20036;-61
2021/10/10 13:24:51;;;;;;;10.18;1.60;;;;;;;;;;5024335;28;20503;-61
2021/10/10 13:27:17;;;;;;;9.88;1.67;;;;;;;;;;5020567;28;20124;-61
2021/10/10 13:29:43;;;;;;;12.40;1.45;;;;;;;;;;5021222;28;20124;-61
2021/10/10 13:32:08;;;;;;;14.50;1.52;;;;;;;;;;5028050;28;20033;-61
2021/10/10 13:34:34;;;;;;;15.65;2.15;;;;;;;;;;5019872;28;20036;-61
2021/10/10 13:36:59;;;;;;;8.73;1.58;;;;;;;;;;5021731;28;20041;-61
2021/10/10 13:39:25;;;;;;;15.52;2.00;;;;;;;;;;5021063;28;20106;-61
2021/10/10 13:41:50;;;;;;;13.75;1.55;;;;;;;;;;5022995;28;20100;-62
2021/10/10 13:44:16;;;;;;;10.52;1.65;;;;;;;;;;5024386;28;20051;-62
2021/10/10 13:46:42;;;;;;;10.15;1.63;;;;;;;;;;5026817;28;20033;-61
2021/10/10 13:49:08;;;;;;;11.10;1.63;;;;;;;;;;5012317;28;20461;-61
2021/10/10 13:51:33;;;;;;;12.00;1.73;;;;;;;;;;5019727;28;20033;-60
2021/10/10 13:53:59;;;;;;;14.90;2.15;;;;;;;;;;5016053;28;20069;-60
2021/10/10 13:56:25;;;;;;;10.65;1.85;;;;;;;;;;5018880;28;20302;-60
2021/10/10 13:58:50;;;;;;;10.75;2.25;;;;;;;;;;5016245;28;20050;-60
2021/10/10 14:01:16;;;;;;;10.27;1.63;;;;;;;;;;5024772;28;20116;-60
2021/10/10 14:03:44;;;;;;;11.52;1.80;;;;;;;;;;5012747;28;20049;-60
2021/10/10 14:06:10;;;;;;;14.13;2.15;;;;;;;;;;5010899;28;20052;-60
2021/10/10 14:08:36;;;;;;;7.43;1.52;;;;;;;;;;5013646;28;20415;-60
2021/10/10 14:11:02;;;;;;;10.88;1.65;;;;;;;;;;5022348;28;20026;-60
2021/10/10 14:13:28;;;;;;;9.15;1.85;;;;;;;;;;5016269;28;20385;-60
2021/10/10 14:15:54;;;;;;;10.55;1.40;;;;;;;;;;5015700;28;20029;-60
2021/10/10 14:18:21;;;;;;;14.43;2.00;;;;;;;;;;5016748;28;20464;-59
2021/10/10 14:20:47;;;;;;;14.30;1.25;;;;;;;;;;5017020;28;20043;-60
2021/10/10 14:23:14;;;;;;;13.90;2.53;;;;;;;;;;5014241;28;20029;-60
2021/10/10 14:25:40;;;;;;;11.98;3.00;;;;;;;;;;5021068;28;20069;-59
2021/10/10 14:28:06;;;;;;;13.35;1.60;;;;;;;;;;5013217;28;20393;-59
2021/10/10 14:30:32;;;;;;;10.18;1.70;;;;;;;;;;5012720;28;20022;-59
2021/10/10 14:32:57;;;;;;;10.20;1.38;;;;;;;;;;5017258;28;20508;-58
2021/10/10 14:35:23;;;;;;;15.65;1.88;;;;;;;;;;5015197;28;20540;-60
2021/10/10 14:37:50;;;;;;;12.35;1.75;;;;;;;;;;5020124;28;20439;-59
2021/10/10 14:40:16;;;;;;;16.55;2.90;;;;;;;;;;5019861;28;20105;-59
2021/10/10 14:50:12;;;;;;;15.32;2.40;;;;;;;;;;5014692;28;20316;-59